createdAt,value
2023-01-17T02:26:49.983Z,0.10
2023-01-17T02:31:50.787Z,0.20
2023-01-17T02:36:49.154Z,0.20
2023-01-17T02:41:44.674Z,0.20
2023-01-17T02:46:47.109Z,0.20
2023-01-17T02:52:06.238Z,0.10
2023-01-17T02:57:12.464Z,0.17
2023-01-17T03:02:19.227Z,0.20
2023-01-17T03:07:19.858Z,0.10
2023-01-17T03:12:13.537Z,0.10
2023-01-17T03:17:06.663Z,0.10
2023-01-17T03:21:59.638Z,0.80
2023-01-17T03:26:52.446Z,0.10
2023-01-17T03:56:06.094Z,0.15
2023-01-17T04:01:00.077Z,0.10
2023-01-17T04:05:54.539Z,0.10
2023-01-17T04:10:47.241Z,0.25
2023-01-17T04:20:36.239Z,0.10
2023-01-17T04:25:30.711Z,0.95
2023-01-17T04:30:20.943Z,0.10
2023-01-17T04:35:12.977Z,0.10
2023-01-17T04:40:04.447Z,0.15
2023-01-17T04:44:58.232Z,0.20
2023-01-17T04:49:49.517Z,0.20
2023-01-17T04:54:42.197Z,0.35
2023-01-17T04:59:33.830Z,2.05
2023-01-17T05:04:29.770Z,0.17
2023-01-17T05:09:21.363Z,0.20
2023-01-17T05:14:13.576Z,0.82
2023-01-17T05:19:05.097Z,0.20
2023-01-17T05:24:02.307Z,0.40
2023-01-17T05:28:52.085Z,0.20
2023-01-17T05:33:41.899Z,0.30
2023-01-17T05:38:32.330Z,0.20
2023-01-17T05:43:30.315Z,0.75
2023-01-17T05:48:23.523Z,0.30
2023-01-17T05:53:25.143Z,0.20
2023-01-17T05:58:21.346Z,0.20
2023-01-17T06:03:25.616Z,0.30
2023-01-17T06:08:20.329Z,0.50
2023-01-17T06:13:12.487Z,0.25
2023-01-17T06:18:07.273Z,0.93
2023-01-17T06:23:16.061Z,0.30
2023-01-17T06:28:10.201Z,0.20
2023-01-17T06:33:05.800Z,0.20
2023-01-17T06:38:07.751Z,0.40
2023-01-17T06:43:03.535Z,0.20
2023-01-17T06:47:53.614Z,0.35
2023-01-17T06:52:43.940Z,0.20
2023-01-17T06:57:41.361Z,0.30
2023-01-17T07:02:34.959Z,0.22
2023-01-17T07:07:33.643Z,1.45
2023-01-17T07:12:26.412Z,0.50
2023-01-17T07:17:30.391Z,1.67
2023-01-17T07:22:21.715Z,0.38
2023-01-17T07:27:12.784Z,0.38
2023-01-17T07:32:03.949Z,0.30
2023-01-17T07:36:57.877Z,0.40
2023-01-17T07:41:49.051Z,0.40
2023-01-17T07:46:39.248Z,0.60
2023-01-17T07:51:43.424Z,0.50
2023-01-17T07:56:37.299Z,0.40
2023-01-17T08:01:30.310Z,0.40
2023-01-17T08:06:24.092Z,0.98
2023-01-17T08:11:17.689Z,0.35
2023-01-17T08:16:13.661Z,0.40
2023-01-17T08:21:04.467Z,0.60
2023-01-17T08:25:54.722Z,0.85
2023-01-17T08:30:44.701Z,1.10
2023-01-17T08:35:37.659Z,1.02
2023-01-17T08:40:30.195Z,1.42
2023-01-17T08:45:21.260Z,1.77
2023-01-17T08:50:15.764Z,2.90
2023-01-17T08:55:12.484Z,1.73
2023-01-17T09:00:07.658Z,5.25
2023-01-17T09:04:58.750Z,6.50
2023-01-17T09:09:52.986Z,5.35
2023-01-17T09:14:48.584Z,6.03
2023-01-17T09:19:42.560Z,4.22
2023-01-17T09:24:32.829Z,4.57
2023-01-17T09:29:23.213Z,3.05
2023-01-17T09:34:19.088Z,3.45
2023-01-17T09:39:11.148Z,4.40
2023-01-17T09:44:09.988Z,3.17
2023-01-17T09:49:09.591Z,5.18
2023-01-17T09:54:04.443Z,5.78
2023-01-17T09:59:08.692Z,6.80
2023-01-17T10:04:15.969Z,7.55
2023-01-17T10:09:23.564Z,6.55
2023-01-17T10:14:37.215Z,6.90
2023-01-17T10:19:44.794Z,6.95
2023-01-17T10:25:01.466Z,6.78
2023-01-17T10:29:54.712Z,8.05
2023-01-17T10:39:43.755Z,6.43
2023-01-17T10:44:42.639Z,6.07
2023-01-17T17:31:53.043Z,0.90
2023-01-17T17:36:54.912Z,1.17
2023-01-17T17:46:40.572Z,4.65
2023-01-17T17:51:32.804Z,5.78
2023-01-17T17:56:26.216Z,5.72
2023-01-17T18:01:16.722Z,6.30
2023-01-17T18:06:11.441Z,6.43
2023-01-17T18:11:07.072Z,6.35
2023-01-17T18:16:10.142Z,5.97
2023-01-17T18:21:11.769Z,5.05
2023-01-17T18:26:02.754Z,5.63
2023-01-17T18:30:53.245Z,4.03
2023-01-17T18:35:55.897Z,6.13
2023-01-17T18:40:48.012Z,5.80
2023-01-17T18:45:38.948Z,5.85
2023-01-17T18:50:33.736Z,5.65
2023-01-17T18:55:32.801Z,5.80
2023-01-17T19:00:27.344Z,6.45
2023-01-17T19:05:22.097Z,8.02
2023-01-17T19:10:14.288Z,6.18
2023-01-17T19:15:10.329Z,6.87
2023-01-17T19:20:00.661Z,8.05
2023-01-17T19:24:53.204Z,7.07
2023-01-17T19:29:43.134Z,8.38
2023-01-17T19:34:36.787Z,7.32
2023-01-17T19:39:30.798Z,7.78
2023-01-17T19:44:21.814Z,7.63
2023-01-17T19:49:13.045Z,7.68
2023-01-17T19:54:08.679Z,7.97
2023-01-17T20:03:57.630Z,6.97
2023-01-17T20:08:49.867Z,8.07
2023-01-17T20:13:45.771Z,7.75
2023-01-17T20:18:38.869Z,8.43
2023-01-17T20:23:28.735Z,9.07
2023-01-17T20:28:19.062Z,7.93
2023-01-17T20:33:16.538Z,7.68
2023-01-17T20:38:11.102Z,7.70
2023-01-17T20:43:02.521Z,7.00
2023-01-17T20:47:54.724Z,6.78
2023-01-17T20:52:49.143Z,7.45
2023-01-17T20:57:42.307Z,7.43
2023-01-17T21:02:33.426Z,8.25
2023-01-17T21:07:27.478Z,7.10
2023-01-17T21:12:23.133Z,8.88
2023-01-17T21:17:16.793Z,9.45
2023-01-17T21:22:07.716Z,8.88
2023-01-17T21:26:57.539Z,8.90
2023-01-17T21:31:51.601Z,8.90
2023-01-17T21:36:46.647Z,9.60
2023-01-17T21:41:44.050Z,9.30
2023-01-17T21:46:35.674Z,9.40
2023-01-17T21:51:50.075Z,9.35
2023-01-17T21:56:52.218Z,9.13
2023-01-17T22:01:42.786Z,9.90
2023-01-17T22:06:40.963Z,8.70
2023-01-17T22:11:34.240Z,9.68
2023-01-17T22:16:27.803Z,9.73
2023-01-17T22:21:21.872Z,8.73
2023-01-17T22:26:15.595Z,8.55
2023-01-17T22:31:15.444Z,8.70
2023-01-17T22:36:07.167Z,6.82
2023-01-17T22:41:07.067Z,6.38
2023-01-17T22:46:05.024Z,6.88
2023-01-17T22:51:02.426Z,7.57
2023-01-17T22:56:02.384Z,6.57
2023-01-17T23:00:53.563Z,5.20
2023-01-17T23:05:47.643Z,6.05
2023-01-17T23:10:51.087Z,4.53
2023-01-17T23:15:54.546Z,5.38
2023-01-17T23:20:50.724Z,5.30
2023-01-17T23:25:42.175Z,5.30
2023-01-17T23:30:37.834Z,5.40
2023-01-17T23:35:31.279Z,5.50
2023-01-17T23:40:25.139Z,5.53
2023-01-17T23:45:16.421Z,5.40
2023-01-17T23:50:08.098Z,5.25
2023-01-17T23:54:58.618Z,6.47
2023-01-17T23:59:52.167Z,7.00
